sensor_id;sensor_type;location;lat;lon;timestamp;P1;durP1;ratioP1;P2;durP2;ratioP2
47896;SDS011;39629;51.400;5.494;2023-04-24T00:01:10;8.98;;;4.15;;
47896;SDS011;39629;51.400;5.494;2023-04-24T00:06:14;11.40;;;4.82;;
47896;SDS011;39629;51.400;5.494;2023-04-24T00:11:17;9.98;;;5.18;;
47896;SDS011;39629;51.400;5.494;2023-04-24T00:16:18;9.25;;;5.03;;
47896;SDS011;39629;51.400;5.494;2023-04-24T00:21:21;11.70;;;5.25;;
47896;SDS011;39629;51.400;5.494;2023-04-24T00:26:25;11.88;;;4.70;;
47896;SDS011;39629;51.400;5.494;2023-04-24T00:31:27;8.88;;;4.78;;
47896;SDS011;39629;51.400;5.494;2023-04-24T00:36:30;11.32;;;5.07;;
47896;SDS011;39629;51.400;5.494;2023-04-24T00:41:32;8.33;;;4.90;;
47896;SDS011;39629;51.400;5.494;2023-04-24T00:46:34;11.40;;;4.85;;
47896;SDS011;39629;51.400;5.494;2023-04-24T00:51:37;8.98;;;4.20;;
47896;SDS011;39629;51.400;5.494;2023-04-24T00:56:40;10.38;;;5.20;;
47896;SDS011;39629;51.400;5.494;2023-04-24T01:01:44;8.77;;;5.32;;
47896;SDS011;39629;51.400;5.494;2023-04-24T01:06:47;11.82;;;6.15;;
47896;SDS011;39629;51.400;5.494;2023-04-24T01:11:51;15.55;;;7.15;;
47896;SDS011;39629;51.400;5.494;2023-04-24T01:16:52;16.00;;;5.50;;
47896;SDS011;39629;51.400;5.494;2023-04-24T01:21:57;12.05;;;5.28;;
47896;SDS011;39629;51.400;5.494;2023-04-24T01:27:01;10.88;;;5.68;;
47896;SDS011;39629;51.400;5.494;2023-04-24T01:32:03;13.27;;;5.97;;
47896;SDS011;39629;51.400;5.494;2023-04-24T01:37:06;12.82;;;7.32;;
47896;SDS011;39629;51.400;5.494;2023-04-24T01:42:09;18.17;;;7.75;;
47896;SDS011;39629;51.400;5.494;2023-04-24T01:47:10;17.10;;;8.15;;
47896;SDS011;39629;51.400;5.494;2023-04-24T01:52:12;15.32;;;7.50;;
47896;SDS011;39629;51.400;5.494;2023-04-24T01:57:15;13.75;;;7.40;;
47896;SDS011;39629;51.400;5.494;2023-04-24T02:02:17;12.60;;;7.75;;
47896;SDS011;39629;51.400;5.494;2023-04-24T02:07:21;16.23;;;7.80;;
47896;SDS011;39629;51.400;5.494;2023-04-24T02:12:24;14.10;;;7.93;;
47896;SDS011;39629;51.400;5.494;2023-04-24T02:17:26;13.60;;;7.97;;
47896;SDS011;39629;51.400;5.494;2023-04-24T02:22:27;16.23;;;8.57;;
47896;SDS011;39629;51.400;5.494;2023-04-24T02:27:30;16.00;;;7.90;;
47896;SDS011;39629;51.400;5.494;2023-04-24T02:32:32;13.82;;;7.45;;
47896;SDS011;39629;51.400;5.494;2023-04-24T02:37:34;13.35;;;7.75;;
47896;SDS011;39629;51.400;5.494;2023-04-24T02:42:36;15.07;;;7.18;;
47896;SDS011;39629;51.400;5.494;2023-04-24T02:47:38;14.95;;;7.65;;
47896;SDS011;39629;51.400;5.494;2023-04-24T02:52:40;13.95;;;7.60;;
47896;SDS011;39629;51.400;5.494;2023-04-24T02:57:43;14.35;;;7.25;;
47896;SDS011;39629;51.400;5.494;2023-04-24T03:02:44;11.40;;;7.18;;
47896;SDS011;39629;51.400;5.494;2023-04-24T03:07:46;13.27;;;6.68;;
47896;SDS011;39629;51.400;5.494;2023-04-24T03:12:49;13.75;;;6.70;;
47896;SDS011;39629;51.400;5.494;2023-04-24T03:17:52;11.75;;;6.55;;
47896;SDS011;39629;51.400;5.494;2023-04-24T03:22:53;13.73;;;7.25;;
47896;SDS011;39629;51.400;5.494;2023-04-24T03:27:57;12.90;;;6.65;;
47896;SDS011;39629;51.400;5.494;2023-04-24T03:33:08;10.85;;;5.95;;
47896;SDS011;39629;51.400;5.494;2023-04-24T03:38:14;11.15;;;6.60;;
47896;SDS011;39629;51.400;5.494;2023-04-24T03:43:30;11.50;;;6.57;;
47896;SDS011;39629;51.400;5.494;2023-04-24T03:48:34;11.38;;;5.80;;
47896;SDS011;39629;51.400;5.494;2023-04-24T03:53:36;8.95;;;5.80;;
47896;SDS011;39629;51.400;5.494;2023-04-24T03:58:40;11.55;;;6.07;;
47896;SDS011;39629;51.400;5.494;2023-04-24T04:03:43;8.07;;;4.60;;
47896;SDS011;39629;51.400;5.494;2023-04-24T04:08:44;10.05;;;4.63;;
47896;SDS011;39629;51.400;5.494;2023-04-24T04:13:48;8.20;;;5.13;;
47896;SDS011;39629;51.400;5.494;2023-04-24T04:18:53;7.03;;;4.55;;
47896;SDS011;39629;51.400;5.494;2023-04-24T04:23:55;8.43;;;4.95;;
47896;SDS011;39629;51.400;5.494;2023-04-24T04:29:05;6.80;;;4.22;;
47896;SDS011;39629;51.400;5.494;2023-04-24T04:34:10;7.45;;;4.15;;
47896;SDS011;39629;51.400;5.494;2023-04-24T04:39:13;7.78;;;4.32;;
47896;SDS011;39629;51.400;5.494;2023-04-24T04:44:29;6.60;;;4.28;;
47896;SDS011;39629;51.400;5.494;2023-04-24T04:49:32;9.43;;;4.00;;
47896;SDS011;39629;51.400;5.494;2023-04-24T04:54:35;9.73;;;4.25;;
47896;SDS011;39629;51.400;5.494;2023-04-24T04:59:38;7.88;;;3.92;;
47896;SDS011;39629;51.400;5.494;2023-04-24T05:04:47;6.03;;;3.15;;
47896;SDS011;39629;51.400;5.494;2023-04-24T05:09:49;5.35;;;3.30;;
47896;SDS011;39629;51.400;5.494;2023-04-24T05:14:53;4.22;;;2.97;;
47896;SDS011;39629;51.400;5.494;2023-04-24T05:19:55;6.28;;;2.88;;
47896;SDS011;39629;51.400;5.494;2023-04-24T05:24:58;4.53;;;2.35;;
47896;SDS011;39629;51.400;5.494;2023-04-24T05:30:12;5.45;;;2.60;;
47896;SDS011;39629;51.400;5.494;2023-04-24T05:35:14;4.83;;;1.90;;
47896;SDS011;39629;51.400;5.494;2023-04-24T05:40:16;2.50;;;1.40;;
47896;SDS011;39629;51.400;5.494;2023-04-24T05:45:19;2.75;;;1.30;;
47896;SDS011;39629;51.400;5.494;2023-04-24T05:50:20;2.42;;;1.33;;
47896;SDS011;39629;51.400;5.494;2023-04-24T05:55:22;2.75;;;1.10;;
47896;SDS011;39629;51.400;5.494;2023-04-24T06:00:25;1.52;;;0.90;;
47896;SDS011;39629;51.400;5.494;2023-04-24T06:05:36;3.92;;;1.20;;
47896;SDS011;39629;51.400;5.494;2023-04-24T06:10:38;2.17;;;1.10;;
47896;SDS011;39629;51.400;5.494;2023-04-24T06:15:43;3.90;;;1.17;;
47896;SDS011;39629;51.400;5.494;2023-04-24T06:20:50;4.03;;;1.50;;
47896;SDS011;39629;51.400;5.494;2023-04-24T06:25:52;2.90;;;1.60;;
47896;SDS011;39629;51.400;5.494;2023-04-24T06:30:55;2.38;;;1.50;;
47896;SDS011;39629;51.400;5.494;2023-04-24T06:35:57;3.97;;;2.00;;
47896;SDS011;39629;51.400;5.494;2023-04-24T06:40:58;5.82;;;2.22;;
47896;SDS011;39629;51.400;5.494;2023-04-24T06:46:01;4.88;;;2.97;;
47896;SDS011;39629;51.400;5.494;2023-04-24T06:51:03;6.75;;;3.38;;
47896;SDS011;39629;51.400;5.494;2023-04-24T06:56:05;8.05;;;4.18;;
47896;SDS011;39629;51.400;5.494;2023-04-24T07:01:08;7.93;;;4.32;;
47896;SDS011;39629;51.400;5.494;2023-04-24T07:06:09;6.10;;;3.58;;
47896;SDS011;39629;51.400;5.494;2023-04-24T07:11:11;8.95;;;5.00;;
47896;SDS011;39629;51.400;5.494;2023-04-24T07:16:14;11.05;;;4.72;;
47896;SDS011;39629;51.400;5.494;2023-04-24T07:21:16;10.00;;;4.68;;
47896;SDS011;39629;51.400;5.494;2023-04-24T07:26:17;9.48;;;5.38;;
47896;SDS011;39629;51.400;5.494;2023-04-24T07:31:20;8.73;;;4.75;;
47896;SDS011;39629;51.400;5.494;2023-04-24T07:36:22;10.20;;;5.20;;
47896;SDS011;39629;51.400;5.494;2023-04-24T07:41:24;7.22;;;3.75;;
47896;SDS011;39629;51.400;5.494;2023-04-24T07:46:29;11.80;;;4.43;;
47896;SDS011;39629;51.400;5.494;2023-04-24T07:51:31;10.65;;;3.80;;
47896;SDS011;39629;51.400;5.494;2023-04-24T07:56:33;8.68;;;2.80;;
47896;SDS011;39629;51.400;5.494;2023-04-24T08:01:40;8.23;;;3.67;;
47896;SDS011;39629;51.400;5.494;2023-04-24T08:06:41;14.40;;;4.05;;
47896;SDS011;39629;51.400;5.494;2023-04-24T08:11:43;8.77;;;3.88;;
47896;SDS011;39629;51.400;5.494;2023-04-24T08:16:46;9.35;;;3.85;;
47896;SDS011;39629;51.400;5.494;2023-04-24T08:21:47;12.57;;;3.58;;
47896;SDS011;39629;51.400;5.494;2023-04-24T08:26:49;8.40;;;3.58;;
47896;SDS011;39629;51.400;5.494;2023-04-24T08:31:53;11.10;;;4.22;;
47896;SDS011;39629;51.400;5.494;2023-04-24T08:36:55;10.40;;;3.22;;
47896;SDS011;39629;51.400;5.494;2023-04-24T08:41:57;13.27;;;4.05;;
47896;SDS011;39629;51.400;5.494;2023-04-24T08:47:06;12.55;;;3.58;;
47896;SDS011;39629;51.400;5.494;2023-04-24T08:52:09;9.15;;;3.42;;
47896;SDS011;39629;51.400;5.494;2023-04-24T08:57:13;8.27;;;3.13;;
47896;SDS011;39629;51.400;5.494;2023-04-24T09:02:17;14.30;;;3.00;;
47896;SDS011;39629;51.400;5.494;2023-04-24T09:07:19;10.02;;;2.80;;
47896;SDS011;39629;51.400;5.494;2023-04-24T09:12:23;4.10;;;2.00;;
47896;SDS011;39629;51.400;5.494;2023-04-24T09:17:26;6.32;;;1.35;;
47896;SDS011;39629;51.400;5.494;2023-04-24T09:22:28;8.00;;;1.92;;
47896;SDS011;39629;51.400;5.494;2023-04-24T09:27:31;4.90;;;1.33;;
47896;SDS011;39629;51.400;5.494;2023-04-24T09:32:34;8.68;;;2.22;;
47896;SDS011;39629;51.400;5.494;2023-04-24T09:37:36;9.10;;;1.83;;
47896;SDS011;39629;51.400;5.494;2023-04-24T09:42:38;8.00;;;1.63;;
47896;SDS011;39629;51.400;5.494;2023-04-24T09:47:41;9.43;;;1.83;;
47896;SDS011;39629;51.400;5.494;2023-04-24T09:52:43;10.23;;;2.28;;
47896;SDS011;39629;51.400;5.494;2023-04-24T09:57:47;11.52;;;2.05;;
47896;SDS011;39629;51.400;5.494;2023-04-24T10:02:52;6.03;;;1.73;;
47896;SDS011;39629;51.400;5.494;2023-04-24T10:07:56;4.45;;;1.45;;
47896;SDS011;39629;51.400;5.494;2023-04-24T10:12:59;5.55;;;1.50;;
47896;SDS011;39629;51.400;5.494;2023-04-24T10:18:04;8.88;;;1.85;;
47896;SDS011;39629;51.400;5.494;2023-04-24T10:23:06;4.85;;;1.73;;
47896;SDS011;39629;51.400;5.494;2023-04-24T10:28:08;4.60;;;1.50;;
47896;SDS011;39629;51.400;5.494;2023-04-24T10:33:12;5.93;;;1.30;;
47896;SDS011;39629;51.400;5.494;2023-04-24T10:38:15;7.83;;;1.70;;
47896;SDS011;39629;51.400;5.494;2023-04-24T10:43:24;5.97;;;1.52;;
47896;SDS011;39629;51.400;5.494;2023-04-24T10:48:27;2.97;;;1.15;;
47896;SDS011;39629;51.400;5.494;2023-04-24T10:53:29;4.10;;;1.15;;
47896;SDS011;39629;51.400;5.494;2023-04-24T10:58:36;5.78;;;1.05;;
47896;SDS011;39629;51.400;5.494;2023-04-24T11:03:41;3.20;;;1.00;;
47896;SDS011;39629;51.400;5.494;2023-04-24T11:08:59;2.05;;;0.80;;
47896;SDS011;39629;51.400;5.494;2023-04-24T11:14:04;2.60;;;0.70;;
47896;SDS011;39629;51.400;5.494;2023-04-24T11:19:09;4.23;;;0.80;;
47896;SDS011;39629;51.400;5.494;2023-04-24T11:24:22;4.45;;;0.98;;
47896;SDS011;39629;51.400;5.494;2023-04-24T11:29:37;1.92;;;0.63;;
47896;SDS011;39629;51.400;5.494;2023-04-24T11:34:41;1.63;;;0.60;;
47896;SDS011;39629;51.400;5.494;2023-04-24T11:39:47;4.03;;;0.80;;
47896;SDS011;39629;51.400;5.494;2023-04-24T11:44:52;4.32;;;0.65;;
47896;SDS011;39629;51.400;5.494;2023-04-24T11:49:55;1.58;;;0.50;;
47896;SDS011;39629;51.400;5.494;2023-04-24T11:54:57;2.65;;;0.50;;
47896;SDS011;39629;51.400;5.494;2023-04-24T11:59:59;3.30;;;0.50;;
47896;SDS011;39629;51.400;5.494;2023-04-24T12:05:02;2.97;;;0.85;;
47896;SDS011;39629;51.400;5.494;2023-04-24T12:10:04;2.53;;;0.70;;
47896;SDS011;39629;51.400;5.494;2023-04-24T12:15:07;2.92;;;0.60;;
47896;SDS011;39629;51.400;5.494;2023-04-24T12:20:11;1.35;;;0.40;;
47896;SDS011;39629;51.400;5.494;2023-04-24T12:30:16;1.70;;;0.40;;
47896;SDS011;39629;51.400;5.494;2023-04-24T12:35:20;1.70;;;0.40;;
47896;SDS011;39629;51.400;5.494;2023-04-24T12:40:24;1.58;;;0.50;;
47896;SDS011;39629;51.400;5.494;2023-04-24T12:45:26;1.55;;;0.40;;
47896;SDS011;39629;51.400;5.494;2023-04-24T12:50:30;3.92;;;0.60;;
47896;SDS011;39629;51.400;5.494;2023-04-24T12:55:31;1.83;;;0.65;;
47896;SDS011;39629;51.400;5.494;2023-04-24T13:00:33;1.38;;;0.50;;
47896;SDS011;39629;51.400;5.494;2023-04-24T13:05:37;4.10;;;0.70;;
47896;SDS011;39629;51.400;5.494;2023-04-24T13:10:38;3.08;;;0.70;;
47896;SDS011;39629;51.400;5.494;2023-04-24T13:15:40;2.78;;;0.73;;
47896;SDS011;39629;51.400;5.494;2023-04-24T13:20:43;3.25;;;0.73;;
47896;SDS011;39629;51.400;5.494;2023-04-24T13:25:47;2.10;;;0.73;;
47896;SDS011;39629;51.400;5.494;2023-04-24T13:30:49;2.85;;;1.00;;
47896;SDS011;39629;51.400;5.494;2023-04-24T13:35:52;2.70;;;0.85;;
47896;SDS011;39629;51.400;5.494;2023-04-24T13:40:53;3.70;;;0.88;;
47896;SDS011;39629;51.400;5.494;2023-04-24T13:45:55;3.63;;;0.98;;
47896;SDS011;39629;51.400;5.494;2023-04-24T13:50:58;2.13;;;0.70;;
47896;SDS011;39629;51.400;5.494;2023-04-24T13:55:59;3.80;;;0.80;;
47896;SDS011;39629;51.400;5.494;2023-04-24T14:01:01;2.20;;;0.82;;
47896;SDS011;39629;51.400;5.494;2023-04-24T14:06:04;2.30;;;0.80;;
47896;SDS011;39629;51.400;5.494;2023-04-24T14:11:07;3.65;;;0.90;;
47896;SDS011;39629;51.400;5.494;2023-04-24T14:16:09;2.50;;;0.85;;
47896;SDS011;39629;51.400;5.494;2023-04-24T14:21:12;6.07;;;0.90;;
47896;SDS011;39629;51.400;5.494;2023-04-24T14:26:14;3.50;;;0.73;;
47896;SDS011;39629;51.400;5.494;2023-04-24T14:31:15;3.90;;;0.80;;
47896;SDS011;39629;51.400;5.494;2023-04-24T14:36:18;3.30;;;1.05;;
47896;SDS011;39629;51.400;5.494;2023-04-24T14:41:20;6.03;;;1.15;;
47896;SDS011;39629;51.400;5.494;2023-04-24T14:46:21;3.25;;;0.90;;
47896;SDS011;39629;51.400;5.494;2023-04-24T14:51:24;2.35;;;0.75;;
47896;SDS011;39629;51.400;5.494;2023-04-24T14:56:26;3.20;;;0.82;;
47896;SDS011;39629;51.400;5.494;2023-04-24T15:01:28;2.20;;;0.60;;
47896;SDS011;39629;51.400;5.494;2023-04-24T15:06:32;1.55;;;0.80;;
47896;SDS011;39629;51.400;5.494;2023-04-24T15:11:33;3.13;;;1.08;;
47896;SDS011;39629;51.400;5.494;2023-04-24T15:16:35;1.63;;;0.75;;
47896;SDS011;39629;51.400;5.494;2023-04-24T15:21:38;2.33;;;0.80;;
47896;SDS011;39629;51.400;5.494;2023-04-24T15:26:41;2.65;;;0.70;;
47896;SDS011;39629;51.400;5.494;2023-04-24T15:31:43;2.22;;;0.68;;
47896;SDS011;39629;51.400;5.494;2023-04-24T15:36:46;2.72;;;0.60;;
47896;SDS011;39629;51.400;5.494;2023-04-24T15:41:47;2.55;;;0.60;;
47896;SDS011;39629;51.400;5.494;2023-04-24T15:46:50;2.80;;;0.80;;
47896;SDS011;39629;51.400;5.494;2023-04-24T15:51:53;2.42;;;0.70;;
47896;SDS011;39629;51.400;5.494;2023-04-24T15:56:55;4.53;;;0.88;;
47896;SDS011;39629;51.400;5.494;2023-04-24T16:01:56;3.03;;;0.80;;
47896;SDS011;39629;51.400;5.494;2023-04-24T16:07:00;5.60;;;1.00;;
47896;SDS011;39629;51.400;5.494;2023-04-24T16:12:02;2.35;;;0.90;;
47896;SDS011;39629;51.400;5.494;2023-04-24T16:17:04;4.45;;;1.10;;
47896;SDS011;39629;51.400;5.494;2023-04-24T16:22:07;4.07;;;1.20;;
47896;SDS011;39629;51.400;5.494;2023-04-24T16:27:08;4.60;;;0.82;;
47896;SDS011;39629;51.400;5.494;2023-04-24T16:32:10;4.25;;;1.02;;
47896;SDS011;39629;51.400;5.494;2023-04-24T16:37:13;2.95;;;1.00;;
47896;SDS011;39629;51.400;5.494;2023-04-24T16:42:15;3.07;;;1.00;;
47896;SDS011;39629;51.400;5.494;2023-04-24T16:47:16;2.75;;;1.10;;
47896;SDS011;39629;51.400;5.494;2023-04-24T16:52:20;4.22;;;1.00;;
47896;SDS011;39629;51.400;5.494;2023-04-24T16:57:22;2.00;;;0.95;;
47896;SDS011;39629;51.400;5.494;2023-04-24T17:02:24;2.78;;;1.05;;
47896;SDS011;39629;51.400;5.494;2023-04-24T17:07:26;3.50;;;1.27;;
47896;SDS011;39629;51.400;5.494;2023-04-24T17:12:28;6.15;;;1.35;;
47896;SDS011;39629;51.400;5.494;2023-04-24T17:17:29;5.63;;;1.40;;
47896;SDS011;39629;51.400;5.494;2023-04-24T17:22:32;2.90;;;1.35;;
47896;SDS011;39629;51.400;5.494;2023-04-24T17:27:34;4.82;;;1.23;;
47896;SDS011;39629;51.400;5.494;2023-04-24T17:32:35;4.57;;;1.20;;
47896;SDS011;39629;51.400;5.494;2023-04-24T17:37:39;5.57;;;1.55;;
47896;SDS011;39629;51.400;5.494;2023-04-24T17:42:40;4.75;;;1.73;;
47896;SDS011;39629;51.400;5.494;2023-04-24T17:47:42;7.15;;;1.50;;
47896;SDS011;39629;51.400;5.494;2023-04-24T17:52:45;4.10;;;1.85;;
47896;SDS011;39629;51.400;5.494;2023-04-24T17:57:46;5.72;;;1.40;;
47896;SDS011;39629;51.400;5.494;2023-04-24T18:02:48;8.43;;;1.40;;
47896;SDS011;39629;51.400;5.494;2023-04-24T18:07:52;5.68;;;1.70;;
47896;SDS011;39629;51.400;5.494;2023-04-24T18:12:53;5.22;;;1.40;;
47896;SDS011;39629;51.400;5.494;2023-04-24T18:17:56;6.07;;;2.20;;
47896;SDS011;39629;51.400;5.494;2023-04-24T18:22:59;4.25;;;1.50;;
47896;SDS011;39629;51.400;5.494;2023-04-24T18:28:00;6.30;;;1.75;;
47896;SDS011;39629;51.400;5.494;2023-04-24T18:33:02;7.75;;;2.08;;
47896;SDS011;39629;51.400;5.494;2023-04-24T18:38:05;6.07;;;2.00;;
47896;SDS011;39629;51.400;5.494;2023-04-24T18:43:07;5.75;;;1.88;;
47896;SDS011;39629;51.400;5.494;2023-04-24T18:48:08;4.55;;;1.85;;
47896;SDS011;39629;51.400;5.494;2023-04-24T18:53:11;5.03;;;1.83;;
47896;SDS011;39629;51.400;5.494;2023-04-24T18:58:15;9.68;;;2.60;;
47896;SDS011;39629;51.400;5.494;2023-04-24T19:03:17;8.00;;;2.53;;
47896;SDS011;39629;51.400;5.494;2023-04-24T19:08:20;6.05;;;2.40;;
47896;SDS011;39629;51.400;5.494;2023-04-24T19:13:22;9.68;;;2.33;;
47896;SDS011;39629;51.400;5.494;2023-04-24T19:18:24;10.88;;;2.28;;
47896;SDS011;39629;51.400;5.494;2023-04-24T19:23:29;9.45;;;2.28;;
47896;SDS011;39629;51.400;5.494;2023-04-24T19:28:35;9.68;;;2.50;;
47896;SDS011;39629;51.400;5.494;2023-04-24T19:33:37;9.43;;;2.55;;
47896;SDS011;39629;51.400;5.494;2023-04-24T19:38:40;10.10;;;2.80;;
47896;SDS011;39629;51.400;5.494;2023-04-24T19:43:41;10.18;;;2.13;;
47896;SDS011;39629;51.400;5.494;2023-04-24T19:48:43;8.63;;;2.58;;
47896;SDS011;39629;51.400;5.494;2023-04-24T19:53:46;10.68;;;2.45;;
47896;SDS011;39629;51.400;5.494;2023-04-24T19:58:48;9.03;;;2.57;;
47896;SDS011;39629;51.400;5.494;2023-04-24T20:03:50;9.70;;;2.38;;
47896;SDS011;39629;51.400;5.494;2023-04-24T20:08:52;9.07;;;2.55;;
47896;SDS011;39629;51.400;5.494;2023-04-24T20:13:54;12.60;;;2.72;;
47896;SDS011;39629;51.400;5.494;2023-04-24T20:18:56;12.18;;;2.70;;
47896;SDS011;39629;51.400;5.494;2023-04-24T20:23:58;7.95;;;2.83;;
47896;SDS011;39629;51.400;5.494;2023-04-24T20:29:00;8.35;;;2.70;;
47896;SDS011;39629;51.400;5.494;2023-04-24T20:34:02;9.32;;;2.65;;
47896;SDS011;39629;51.400;5.494;2023-04-24T20:39:06;8.20;;;2.40;;
47896;SDS011;39629;51.400;5.494;2023-04-24T20:44:08;9.43;;;2.63;;
47896;SDS011;39629;51.400;5.494;2023-04-24T20:49:10;12.65;;;3.22;;
47896;SDS011;39629;51.400;5.494;2023-04-24T20:54:13;11.02;;;2.92;;
47896;SDS011;39629;51.400;5.494;2023-04-24T20:59:15;11.10;;;3.53;;
47896;SDS011;39629;51.400;5.494;2023-04-24T21:04:17;13.45;;;3.10;;
47896;SDS011;39629;51.400;5.494;2023-04-24T21:09:19;10.02;;;3.17;;
47896;SDS011;39629;51.400;5.494;2023-04-24T21:14:21;8.95;;;3.00;;
47896;SDS011;39629;51.400;5.494;2023-04-24T21:19:23;8.55;;;3.10;;
47896;SDS011;39629;51.400;5.494;2023-04-24T21:24:26;10.90;;;3.30;;
47896;SDS011;39629;51.400;5.494;2023-04-24T21:29:27;11.95;;;2.97;;
47896;SDS011;39629;51.400;5.494;2023-04-24T21:34:29;11.20;;;3.47;;
47896;SDS011;39629;51.400;5.494;2023-04-24T21:39:32;8.35;;;3.53;;
47896;SDS011;39629;51.400;5.494;2023-04-24T21:44:33;12.10;;;3.60;;
47896;SDS011;39629;51.400;5.494;2023-04-24T21:49:35;10.93;;;3.55;;
47896;SDS011;39629;51.400;5.494;2023-04-24T21:54:38;8.05;;;3.00;;
47896;SDS011;39629;51.400;5.494;2023-04-24T21:59:39;10.38;;;3.50;;
47896;SDS011;39629;51.400;5.494;2023-04-24T22:04:41;10.30;;;3.40;;
47896;SDS011;39629;51.400;5.494;2023-04-24T22:09:44;7.82;;;2.90;;
47896;SDS011;39629;51.400;5.494;2023-04-24T22:14:45;12.30;;;3.65;;
47896;SDS011;39629;51.400;5.494;2023-04-24T22:19:47;11.18;;;3.00;;
47896;SDS011;39629;51.400;5.494;2023-04-24T22:24:50;13.25;;;2.97;;
47896;SDS011;39629;51.400;5.494;2023-04-24T22:29:51;10.65;;;3.97;;
47896;SDS011;39629;51.400;5.494;2023-04-24T22:34:53;11.85;;;3.40;;
47896;SDS011;39629;51.400;5.494;2023-04-24T22:39:56;8.85;;;3.28;;
47896;SDS011;39629;51.400;5.494;2023-04-24T22:44:59;8.73;;;2.97;;
47896;SDS011;39629;51.400;5.494;2023-04-24T22:50:00;11.35;;;3.30;;
47896;SDS011;39629;51.400;5.494;2023-04-24T22:55:04;9.82;;;3.20;;
47896;SDS011;39629;51.400;5.494;2023-04-24T23:00:06;15.03;;;3.40;;
47896;SDS011;39629;51.400;5.494;2023-04-24T23:05:10;9.05;;;3.20;;
47896;SDS011;39629;51.400;5.494;2023-04-24T23:10:13;11.65;;;3.40;;
47896;SDS011;39629;51.400;5.494;2023-04-24T23:15:14;10.40;;;2.90;;
47896;SDS011;39629;51.400;5.494;2023-04-24T23:20:16;9.18;;;3.30;;
47896;SDS011;39629;51.400;5.494;2023-04-24T23:25:19;11.68;;;3.13;;
47896;SDS011;39629;51.400;5.494;2023-04-24T23:30:20;9.45;;;3.30;;
47896;SDS011;39629;51.400;5.494;2023-04-24T23:35:22;10.82;;;3.00;;
47896;SDS011;39629;51.400;5.494;2023-04-24T23:40:26;14.55;;;3.80;;
47896;SDS011;39629;51.400;5.494;2023-04-24T23:45:27;9.15;;;3.70;;
47896;SDS011;39629;51.400;5.494;2023-04-24T23:50:29;10.18;;;3.83;;
47896;SDS011;39629;51.400;5.494;2023-04-24T23:55:32;11.18;;;3.22;;
